Time;durP1;ratioP1;P1;durP2;ratioP2;P2;SDS_P1;SDS_P2;PMS_P1;PMS_P2;Temp;Humidity;BMP_temperature;BMP_pressure;BME280_temperature;BME280_humidity;BME280_pressure;Samples;Min_cycle;Max_cycle;Signal;HPM_P1;HPM_P2
2021/11/16 00:00:52;;;;;;;21.90;17.52;;;17.00;99.90;;;;;;5049039;28;20032;-59
2021/11/16 00:03:17;;;;;;;23.73;17.50;;;17.00;99.90;;;;;;5053126;28;20108;-60
2021/11/16 00:05:43;;;;;;;19.00;15.55;;;17.10;99.90;;;;;;5056207;28;20049;-59
2021/11/16 00:08:09;;;;;;;19.40;15.93;;;17.10;99.90;;;;;;5049208;28;20017;-60
2021/11/16 00:10:36;;;;;;;17.92;15.68;;;17.00;99.90;;;;;;5042555;28;20037;-60
2021/11/16 00:13:04;;;;;;;19.23;15.68;;;17.00;99.90;;;;;;5047071;28;20021;-60
2021/11/16 00:15:30;;;;;;;19.50;15.57;;;17.00;99.90;;;;;;5054364;28;20074;-60
2021/11/16 00:17:56;;;;;;;22.05;16.33;;;17.00;99.90;;;;;;5054312;28;20475;-59
2021/11/16 00:20:23;;;;;;;21.25;16.67;;;17.00;99.90;;;;;;5049070;28;20029;-59
2021/11/16 00:22:49;;;;;;;21.50;17.23;;;17.00;99.90;;;;;;5050156;28;20024;-59
2021/11/16 00:25:22;;;;;;;22.70;17.40;;;17.00;99.90;;;;;;5044225;28;20433;-59
2021/11/16 00:27:48;;;;;;;21.40;16.80;;;17.20;99.90;;;;;;5051458;28;20415;-60
2021/11/16 00:30:15;;;;;;;18.75;16.17;;;17.10;99.90;;;;;;5052856;28;20048;-59
2021/11/16 00:32:41;;;;;;;22.58;17.25;;;17.10;99.90;;;;;;5038072;28;20144;-60
2021/11/16 00:35:08;;;;;;;23.13;16.92;;;17.10;99.90;;;;;;5037049;28;20030;-60
2021/11/16 00:37:35;;;;;;;20.35;16.33;;;17.10;99.90;;;;;;5047185;28;20029;-59
2021/11/16 00:40:05;;;;;;;23.52;15.80;;;17.10;99.90;;;;;;5055324;28;20036;-59
2021/11/16 00:42:31;;;;;;;23.40;17.33;;;17.10;99.90;;;;;;5049283;28;20070;-59
2021/11/16 00:44:56;;;;;;;24.77;18.70;;;17.20;99.90;;;;;;5036733;28;20033;-59
2021/11/16 00:47:23;;;;;;;27.00;18.35;;;17.20;99.90;;;;;;5043132;28;20430;-59
2021/11/16 00:49:50;;;;;;;22.23;17.50;;;17.10;99.90;;;;;;5035509;28;20476;-59
2021/11/16 00:52:16;;;;;;;25.08;18.80;;;17.00;99.90;;;;;;5040951;28;20052;-59
2021/11/16 00:54:42;;;;;;;24.80;17.15;;;17.10;99.90;;;;;;5054553;28;20474;-60
2021/11/16 00:57:08;;;;;;;26.08;18.63;;;17.20;99.90;;;;;;5046975;28;20076;-59
2021/11/16 00:59:34;;;;;;;23.58;17.92;;;17.20;99.90;;;;;;5035471;28;20030;-58
2021/11/16 01:01:59;;;;;;;24.48;17.42;;;17.20;99.90;;;;;;5038867;28;20029;-60
2021/11/16 01:04:27;;;;;;;26.23;18.33;;;17.20;99.90;;;;;;5051690;28;20044;-60
2021/11/16 01:06:53;;;;;;;32.78;20.35;;;17.10;99.90;;;;;;5049052;28;20023;-59
2021/11/16 01:09:19;;;;;;;25.70;18.65;;;17.10;99.90;;;;;;5054233;28;20421;-59
2021/11/16 01:11:45;;;;;;;27.38;19.05;;;17.10;99.90;;;;;;5052169;28;20040;-59
2021/11/16 01:14:11;;;;;;;27.35;18.90;;;17.10;99.90;;;;;;5043205;28;20489;-59
2021/11/16 01:16:36;;;;;;;25.20;17.95;;;17.10;99.90;;;;;;5044798;28;20021;-60
2021/11/16 01:19:06;;;;;;;29.15;19.38;;;17.10;99.90;;;;;;5053731;28;20104;-59
2021/11/16 01:21:33;;;;;;;23.85;18.48;;;17.00;99.90;;;;;;5052969;28;20040;-59
2021/11/16 01:24:00;;;;;;;22.05;17.73;;;17.10;99.90;;;;;;5053883;28;20041;-59
2021/11/16 01:26:26;;;;;;;24.25;18.52;;;17.00;99.90;;;;;;5043634;28;20079;-59
2021/11/16 01:28:51;;;;;;;25.85;18.73;;;17.00;99.90;;;;;;5050501;28;20025;-59
2021/11/16 01:31:17;;;;;;;26.63;19.70;;;17.00;99.90;;;;;;5054297;28;20041;-59
2021/11/16 01:33:49;;;;;;;25.02;18.65;;;17.00;99.90;;;;;;5052843;28;20439;-59
2021/11/16 01:36:15;;;;;;;24.35;17.25;;;17.10;99.90;;;;;;5054197;28;20569;-58
2021/11/16 01:38:43;;;;;;;20.77;16.60;;;17.00;99.90;;;;;;5046473;28;20552;-59
2021/11/16 01:41:10;;;;;;;22.40;17.92;;;16.90;99.90;;;;;;5053892;28;20048;-59
2021/11/16 01:43:35;;;;;;;25.35;17.92;;;17.00;99.90;;;;;;5051215;28;20032;-59
2021/11/16 01:46:05;;;;;;;23.92;18.05;;;17.00;99.90;;;;;;5039733;28;20033;-59
2021/11/16 01:48:33;;;;;;;21.60;17.10;;;17.00;99.90;;;;;;5052555;28;20036;-59
2021/11/16 01:50:59;;;;;;;26.95;17.65;;;17.00;99.90;;;;;;5053226;28;20380;-58
2021/11/16 01:53:25;;;;;;;22.30;17.10;;;17.00;99.90;;;;;;5050445;28;20029;-59
2021/11/16 01:55:51;;;;;;;21.42;16.42;;;17.00;99.90;;;;;;5048524;28;20028;-59
2021/11/16 01:58:16;;;;;;;23.20;16.92;;;17.00;99.90;;;;;;5052219;28;20053;-59
2021/11/16 02:00:44;;;;;;;24.67;17.75;;;17.10;99.90;;;;;;5052415;28;20052;-59
2021/11/16 02:03:11;;;;;;;22.17;17.00;;;17.10;99.90;;;;;;5051650;28;20048;-61
2021/11/16 02:05:50;;;;;;;22.55;17.25;;;17.00;99.90;;;;;;5053145;28;20025;-59
2021/11/16 02:08:17;;;;;;;20.92;17.35;;;17.10;99.90;;;;;;5049358;28;20021;-59
2021/11/16 02:10:46;;;;;;;21.60;17.83;;;17.10;99.90;;;;;;5041607;28;20025;-59
2021/11/16 02:13:12;;;;;;;25.05;18.35;;;17.10;99.90;;;;;;5051889;28;20060;-59
2021/11/16 02:15:38;;;;;;;24.23;17.27;;;17.00;99.90;;;;;;5049876;28;20118;-59
2021/11/16 02:18:10;;;;;;;26.70;18.98;;;17.00;99.90;;;;;;5039251;28;20033;-59
2021/11/16 02:20:38;;;;;;;25.83;17.67;;;17.00;99.90;;;;;;5047183;28;20104;-59
2021/11/16 02:23:05;;;;;;;27.48;19.30;;;17.00;99.90;;;;;;5041121;28;20030;-59
2021/11/16 02:25:31;;;;;;;27.50;19.70;;;17.00;99.90;;;;;;5035811;28;20029;-58
2021/11/16 02:27:57;;;;;;;22.80;17.85;;;17.00;99.90;;;;;;5040982;28;20087;-59
2021/11/16 02:30:24;;;;;;;22.35;17.25;;;17.00;99.90;;;;;;5033299;28;20100;-59
2021/11/16 02:32:54;;;;;;;23.60;18.45;;;17.00;99.90;;;;;;5048463;28;20025;-59
2021/11/16 02:35:22;;;;;;;23.75;18.35;;;17.00;99.90;;;;;;5053127;28;20029;-57
2021/11/16 02:37:48;;;;;;;22.67;18.75;;;17.10;99.90;;;;;;5046966;28;20112;-59
2021/11/16 02:40:14;;;;;;;23.35;18.25;;;17.00;99.90;;;;;;5033251;28;20097;-60
2021/11/16 02:42:40;;;;;;;26.67;17.23;;;16.90;99.90;;;;;;5033509;28;20034;-59
2021/11/16 02:45:07;;;;;;;23.17;17.45;;;17.00;99.90;;;;;;5033245;28;20098;-59
2021/11/16 02:47:33;;;;;;;22.70;17.48;;;17.00;99.90;;;;;;5049076;28;20494;-58
2021/11/16 02:49:59;;;;;;;26.55;18.52;;;17.10;99.90;;;;;;5033252;28;20031;-58
2021/11/16 02:52:26;;;;;;;26.95;18.58;;;17.00;99.90;;;;;;5040062;28;20211;-58
2021/11/16 02:54:52;;;;;;;26.67;18.88;;;17.10;99.90;;;;;;5052278;28;20108;-58
2021/11/16 02:57:18;;;;;;;28.88;18.95;;;16.90;99.90;;;;;;5047881;28;20121;-59
2021/11/16 02:59:44;;;;;;;25.13;18.13;;;17.00;99.90;;;;;;5051567;28;20143;-58
2021/11/16 03:02:10;;;;;;;25.27;18.02;;;16.90;99.90;;;;;;5039381;28;20493;-57
2021/11/16 03:04:38;;;;;;;26.35;18.85;;;16.90;99.90;;;;;;5032970;28;20478;-59
2021/11/16 03:07:05;;;;;;;24.55;18.02;;;16.90;99.90;;;;;;5042671;28;20432;-58
2021/11/16 03:09:33;;;;;;;28.80;18.27;;;16.90;99.90;;;;;;5047866;28;20062;-59
2021/11/16 03:12:00;;;;;;;23.50;18.20;;;16.90;99.90;;;;;;5049297;28;20036;-59
2021/11/16 03:14:27;;;;;;;22.17;17.33;;;17.10;99.90;;;;;;5045564;28;20114;-58
2021/11/16 03:16:54;;;;;;;20.98;16.77;;;17.00;99.90;;;;;;5051544;28;20021;-58
2021/11/16 03:19:20;;;;;;;23.67;16.38;;;16.90;99.90;;;;;;5052343;28;20079;-59
2021/11/16 03:21:54;;;;;;;19.13;15.20;;;16.90;99.90;;;;;;5052246;28;20025;-59
2021/11/16 03:24:24;;;;;;;21.98;15.68;;;16.90;99.90;;;;;;5051316;28;20047;-59
2021/11/16 03:26:50;;;;;;;19.63;14.75;;;16.90;99.90;;;;;;5039002;28;20104;-58
2021/11/16 03:29:22;;;;;;;22.58;15.60;;;17.00;99.90;;;;;;5044371;28;20116;-58
2021/11/16 03:31:50;;;;;;;18.98;14.65;;;17.00;99.90;;;;;;5052754;28;20029;-59
2021/11/16 03:34:17;;;;;;;20.63;15.68;;;17.10;99.90;;;;;;5048650;28;20139;-58
2021/11/16 03:36:43;;;;;;;18.00;15.00;;;17.00;99.90;;;;;;5052541;28;20021;-59
2021/11/16 03:39:08;;;;;;;18.40;14.63;;;17.00;99.90;;;;;;5046860;28;20490;-59
2021/11/16 03:41:34;;;;;;;20.02;15.38;;;17.10;99.90;;;;;;5052313;28;20036;-58
2021/11/16 03:44:00;;;;;;;18.15;13.77;;;17.10;99.90;;;;;;5050591;28;20398;-58
2021/11/16 03:46:26;;;;;;;18.40;13.82;;;17.00;99.90;;;;;;5052506;28;20056;-58
2021/11/16 03:48:51;;;;;;;20.40;14.27;;;17.10;99.90;;;;;;5046972;28;20036;-59
2021/11/16 03:51:17;;;;;;;19.45;14.32;;;17.10;99.90;;;;;;5052292;28;20468;-59
2021/11/16 03:53:43;;;;;;;21.55;15.68;;;17.00;99.90;;;;;;5049343;28;20037;-58
2021/11/16 03:56:09;;;;;;;20.48;14.38;;;17.00;99.90;;;;;;5051451;28;20056;-59
2021/11/16 03:58:37;;;;;;;20.15;15.00;;;17.00;99.90;;;;;;5047608;28;20479;-57
2021/11/16 04:01:05;;;;;;;15.63;13.40;;;16.90;99.90;;;;;;5052394;28;20059;-58
2021/11/16 04:03:33;;;;;;;19.67;14.93;;;16.80;99.90;;;;;;5040088;28;20064;-58
2021/11/16 04:06:00;;;;;;;20.55;14.85;;;16.90;99.90;;;;;;5046758;28;20033;-59
2021/11/16 04:08:26;;;;;;;18.02;14.50;;;16.80;99.90;;;;;;5049375;28;20497;-59
2021/11/16 04:10:53;;;;;;;20.80;15.30;;;16.80;99.90;;;;;;5050852;28;20021;-61
2021/11/16 04:13:19;;;;;;;21.17;16.35;;;16.80;99.90;;;;;;5042475;28;20044;-59
2021/11/16 04:15:47;;;;;;;18.33;13.73;;;16.90;99.90;;;;;;5038589;28;20021;-60
2021/11/16 04:18:13;;;;;;;20.08;14.70;;;16.80;99.90;;;;;;5038739;28;20033;-59
2021/11/16 04:20:41;;;;;;;18.38;14.40;;;16.80;99.90;;;;;;5052064;28;20031;-60
2021/11/16 04:23:11;;;;;;;17.52;14.60;;;16.90;99.90;;;;;;5047331;28;20030;-59
2021/11/16 04:25:38;;;;;;;19.10;14.68;;;16.80;99.90;;;;;;5035712;28;20032;-60
2021/11/16 04:28:06;;;;;;;16.85;14.30;;;16.80;99.90;;;;;;5041328;28;20021;-59
2021/11/16 04:30:33;;;;;;;15.68;13.88;;;16.80;99.90;;;;;;5055049;28;20044;-60
2021/11/16 04:32:59;;;;;;;19.55;15.55;;;16.70;99.90;;;;;;5048956;28;20087;-58
2021/11/16 04:35:26;;;;;;;19.02;14.38;;;16.80;99.90;;;;;;5035644;28;20095;-59
2021/11/16 04:37:55;;;;;;;18.83;13.68;;;16.90;99.90;;;;;;5039217;28;20581;-59
2021/11/16 04:40:26;;;;;;;17.85;13.77;;;16.80;99.90;;;;;;5054469;28;20036;-60
2021/11/16 04:42:55;;;;;;;19.77;14.90;;;16.90;99.90;;;;;;5054468;28;20379;-59
2021/11/16 04:45:23;;;;;;;20.60;15.35;;;16.90;99.90;;;;;;5055112;28;20033;-58
2021/11/16 04:50:51;;;;;;;19.05;15.20;;;16.90;99.90;;;;;;5053445;28;20037;-59
2021/11/16 05:03:50;;;;;;;21.00;15.07;;;16.90;99.90;;;;;;5042433;28;20095;-59
2021/11/16 05:06:16;;;;;;;20.13;16.17;;;16.80;99.90;;;;;;5035748;28;20113;-58
2021/11/16 05:08:46;;;;;;;21.63;16.88;;;16.80;99.90;;;;;;5053897;28;20103;-58
2021/11/16 05:11:13;;;;;;;20.92;15.77;;;16.80;99.90;;;;;;5050477;28;20025;-58
2021/11/16 05:13:43;;;;;;;22.45;17.52;;;16.70;99.90;;;;;;5052832;28;20116;-57
2021/11/16 05:16:10;;;;;;;20.08;15.60;;;16.70;99.90;;;;;;5054768;28;20056;-58
2021/11/16 05:18:36;;;;;;;21.95;16.63;;;16.60;99.90;;;;;;5044596;28;20021;-58
2021/11/16 05:21:02;;;;;;;20.63;15.65;;;16.60;99.90;;;;;;5042143;28;20052;-58
2021/11/16 05:23:28;;;;;;;19.73;15.75;;;16.60;99.90;;;;;;5053765;28;20387;-55
2021/11/16 05:25:54;;;;;;;20.75;16.35;;;16.70;99.90;;;;;;5054543;28;20033;-59
2021/11/16 05:28:21;;;;;;;21.17;16.73;;;16.70;99.90;;;;;;5039817;28;20047;-58
2021/11/16 05:30:47;;;;;;;22.02;16.67;;;16.60;99.90;;;;;;5052738;28;20175;-59
2021/11/16 05:33:13;;;;;;;20.27;16.48;;;16.60;99.90;;;;;;5047497;28;20083;-58
2021/11/16 05:35:39;;;;;;;20.10;14.93;;;16.60;99.90;;;;;;5038846;28;20585;-59
2021/11/16 05:38:05;;;;;;;21.30;15.85;;;16.40;99.90;;;;;;5049496;28;20033;-58
2021/11/16 05:40:31;;;;;;;20.50;16.55;;;16.40;99.90;;;;;;5036638;28;20506;-58
2021/11/16 05:42:57;;;;;;;20.00;16.35;;;16.30;99.90;;;;;;5036304;28;20079;-58
2021/11/16 05:45:24;;;;;;;22.48;15.88;;;16.20;99.90;;;;;;5053302;28;20036;-58
2021/11/16 05:47:53;;;;;;;21.70;15.70;;;16.20;99.90;;;;;;5052285;28;20143;-59
2021/11/16 05:50:19;;;;;;;21.10;15.93;;;16.10;99.90;;;;;;5053801;28;20070;-59
2021/11/16 05:52:44;;;;;;;22.75;17.35;;;16.20;99.90;;;;;;5051903;28;20111;-58
2021/11/16 05:55:11;;;;;;;20.20;15.55;;;16.10;99.90;;;;;;5052124;28;20029;-59
2021/11/16 05:57:37;;;;;;;21.92;15.40;;;16.10;99.90;;;;;;5049092;28;20426;-58
2021/11/16 06:00:06;;;;;;;21.83;16.17;;;16.00;99.90;;;;;;5041240;28;20032;-57
2021/11/16 06:02:32;;;;;;;23.83;16.50;;;16.00;99.90;;;;;;5053732;28;20389;-57
2021/11/16 06:04:57;;;;;;;19.77;15.57;;;16.00;99.90;;;;;;5049794;28;20029;-60
2021/11/16 06:07:23;;;;;;;22.83;16.27;;;16.00;99.90;;;;;;5053039;28;20033;-59
2021/11/16 06:09:49;;;;;;;20.67;16.35;;;16.10;99.90;;;;;;5042984;28;20035;-59
2021/11/16 06:12:14;;;;;;;19.23;15.35;;;16.10;99.90;;;;;;5053617;28;20021;-60
2021/11/16 06:14:40;;;;;;;18.27;15.57;;;16.00;99.90;;;;;;5051958;28;20028;-61
2021/11/16 06:17:06;;;;;;;20.92;15.80;;;16.10;99.90;;;;;;5053412;28;20025;-60
2021/11/16 06:19:36;;;;;;;21.60;15.77;;;16.20;99.90;;;;;;5040442;28;20490;-58
2021/11/16 06:22:07;;;;;;;18.75;15.73;;;16.20;99.90;;;;;;5033525;28;20087;-61
2021/11/16 06:24:33;;;;;;;25.67;16.10;;;16.20;99.90;;;;;;5046934;28;20037;-60
2021/11/16 06:26:59;;;;;;;23.40;16.20;;;16.10;99.90;;;;;;5052306;28;20036;-60
2021/11/16 06:29:25;;;;;;;22.15;16.70;;;16.00;99.90;;;;;;5040329;28;20083;-61
2021/11/16 06:31:50;;;;;;;22.15;17.45;;;16.10;99.90;;;;;;5052145;28;20036;-59
2021/11/16 06:34:16;;;;;;;23.90;17.17;;;16.00;99.90;;;;;;5050246;28;20435;-60
2021/11/16 06:36:43;;;;;;;21.55;16.42;;;16.10;99.90;;;;;;5051823;28;20458;-60
2021/11/16 06:39:12;;;;;;;22.52;16.17;;;16.10;99.90;;;;;;5040073;28;20037;-60
2021/11/16 06:41:39;;;;;;;23.67;17.50;;;16.10;99.90;;;;;;5033686;28;20100;-60
2021/11/16 06:44:06;;;;;;;22.50;17.13;;;16.20;99.90;;;;;;5050649;28;20041;-60
2021/11/16 06:46:32;;;;;;;27.27;18.52;;;16.10;99.90;;;;;;5050805;28;20449;-59
2021/11/16 06:49:00;;;;;;;26.63;19.08;;;16.10;99.90;;;;;;5044032;28;20092;-58
2021/11/16 06:51:26;;;;;;;28.98;19.50;;;16.10;99.90;;;;;;5052831;28;20029;-59
2021/11/16 06:53:52;;;;;;;29.33;19.83;;;16.00;99.90;;;;;;5048507;28;20364;-57
2021/11/16 06:56:26;;;;;;;27.63;20.50;;;16.10;99.90;;;;;;5053233;28;20078;-59
2021/11/16 06:58:52;;;;;;;31.90;22.67;;;16.10;99.90;;;;;;5040141;28;20025;-58
2021/11/16 07:01:17;;;;;;;28.45;22.95;;;16.10;99.90;;;;;;5051287;28;20029;-58
2021/11/16 07:03:52;;;;;;;35.40;23.02;;;16.10;99.90;;;;;;5048910;28;20094;-59
2021/11/16 07:06:18;;;;;;;32.72;24.33;;;16.20;99.90;;;;;;5052919;28;20119;-59
2021/11/16 07:08:46;;;;;;;33.17;23.60;;;16.10;99.90;;;;;;5045454;28;20506;-58
2021/11/16 07:11:17;;;;;;;33.58;23.80;;;16.20;99.90;;;;;;5034125;28;20096;-57
2021/11/16 07:14:06;;;;;;;36.00;24.17;;;16.30;99.90;;;;;;5037474;28;20470;-58
2021/11/16 07:16:35;;;;;;;35.90;24.17;;;16.20;99.90;;;;;;5069113;28;20029;-58
2021/11/16 07:19:02;;;;;;;33.85;24.30;;;16.20;99.90;;;;;;5062612;28;20112;-59
2021/11/16 07:21:41;;;;;;;33.05;23.75;;;16.20;99.90;;;;;;5049120;28;20060;-58
2021/11/16 07:24:12;;;;;;;41.95;26.08;;;16.20;99.90;;;;;;5051145;28;20511;-59
2021/11/16 07:26:41;;;;;;;43.28;27.80;;;16.20;99.90;;;;;;5048528;28;20029;-59
2021/11/16 07:29:13;;;;;;;43.80;26.92;;;16.10;99.90;;;;;;5037054;28;20025;-59
2021/11/16 07:31:42;;;;;;;39.50;25.70;;;16.30;99.90;;;;;;5050171;28;20506;-58
2021/11/16 07:34:20;;;;;;;41.25;26.80;;;16.30;99.90;;;;;;5061123;28;20028;-59
2021/11/16 07:37:01;;;;;;;49.22;27.50;;;16.20;99.90;;;;;;5047424;28;20018;-59
2021/11/16 07:39:28;;;;;;;45.38;27.25;;;16.10;99.90;;;;;;5046119;28;20475;-59
2021/11/16 07:42:05;;;;;;;44.58;28.27;;;16.10;99.90;;;;;;5048199;28;20025;-59
2021/11/16 07:44:31;;;;;;;46.42;27.98;;;16.30;99.90;;;;;;5045480;28;20029;-59
2021/11/16 07:46:57;;;;;;;50.35;27.98;;;16.20;99.90;;;;;;5048976;28;20021;-59
2021/11/16 07:49:23;;;;;;;44.95;28.77;;;16.20;99.90;;;;;;5036523;28;20039;-61
2021/11/16 07:51:50;;;;;;;41.25;26.08;;;16.30;99.90;;;;;;5038409;28;20116;-59
2021/11/16 07:54:28;;;;;;;39.90;26.27;;;16.40;99.90;;;;;;5039422;28;20108;-60
2021/11/16 07:57:04;;;;;;;42.70;27.23;;;16.40;99.90;;;;;;5044794;28;20021;-60
2021/11/16 07:59:31;;;;;;;45.13;27.52;;;16.60;99.90;;;;;;5047274;28;20091;-59
2021/11/16 08:02:00;;;;;;;48.67;27.98;;;16.80;99.90;;;;;;5047270;28;20037;-59
2021/11/16 08:04:33;;;;;;;39.65;27.30;;;16.80;99.90;;;;;;5050188;28;20099;-60
2021/11/16 08:12:07;;;;;;;46.80;28.38;;;17.00;99.90;;;;;;5045282;28;20029;-60
2021/11/16 08:14:35;;;;;;;41.72;28.15;;;17.20;99.90;;;;;;5050240;28;20471;-60
2021/11/16 08:17:03;;;;;;;39.50;27.33;;;17.10;99.90;;;;;;5055298;28;20058;-59
2021/11/16 08:19:31;;;;;;;39.78;28.20;;;17.10;99.30;;;;;;5053153;28;20044;-60
2021/11/16 08:22:00;;;;;;;34.00;23.73;;;17.20;99.70;;;;;;5045120;28;20382;-59
2021/11/16 08:24:31;;;;;;;38.30;25.63;;;17.20;98.70;;;;;;5053863;28;20037;-59
2021/11/16 08:26:58;;;;;;;31.95;23.65;;;17.20;97.40;;;;;;5054534;28;20029;-59
2021/11/16 08:29:37;;;;;;;35.78;25.13;;;17.00;96.90;;;;;;5054435;28;20076;-59
2021/11/16 08:32:16;;;;;;;41.10;26.33;;;17.10;96.40;;;;;;5054888;28;20448;-60
2021/11/16 08:34:47;;;;;;;34.83;23.42;;;17.00;97.80;;;;;;5053387;28;20021;-58
2021/11/16 08:37:15;;;;;;;35.40;24.83;;;16.80;96.80;;;;;;5055657;28;20025;-59
2021/11/16 08:39:57;;;;;;;33.88;23.92;;;17.00;95.80;;;;;;5053658;28;20112;-58
2021/11/16 08:42:24;;;;;;;40.00;25.95;;;16.90;95.90;;;;;;5043902;28;20415;-59
2021/11/16 08:44:55;;;;;;;36.80;24.13;;;17.20;96.60;;;;;;5044539;28;20124;-58
2021/11/16 08:47:26;;;;;;;35.70;26.00;;;17.30;96.60;;;;;;5052043;28;20067;-60
2021/11/16 08:49:53;;;;;;;40.33;27.95;;;17.40;97.00;;;;;;5051952;28;20025;-59
2021/11/16 08:52:18;;;;;;;51.15;40.55;;;17.10;95.90;;;;;;5048187;28;20025;-60
2021/11/16 08:54:58;;;;;;;31.30;22.63;;;17.20;96.20;;;;;;5045421;28;20036;-57
2021/11/16 08:57:25;;;;;;;34.53;25.88;;;17.20;92.80;;;;;;5035257;28;20079;-59
2021/11/16 08:59:52;;;;;;;30.73;22.35;;;17.30;95.80;;;;;;5035242;28;20022;-59
2021/11/16 09:02:20;;;;;;;31.17;21.35;;;17.20;95.10;;;;;;5046092;28;20096;-60
2021/11/16 09:04:45;;;;;;;33.63;23.27;;;17.10;94.80;;;;;;5053359;28;20116;-60
2021/11/16 09:07:30;;;;;;;35.42;23.02;;;17.20;95.30;;;;;;5054869;28;20108;-59
2021/11/16 09:10:01;;;;;;;33.67;22.98;;;17.30;95.00;;;;;;5051327;28;20109;-59
2021/11/16 09:12:36;;;;;;;31.33;22.38;;;17.30;95.10;;;;;;5053786;28;20116;-59
2021/11/16 09:15:03;;;;;;;33.80;23.17;;;17.20;95.00;;;;;;5044052;28;20502;-58
2021/11/16 09:17:29;;;;;;;32.70;22.77;;;17.20;95.00;;;;;;5050425;28;20035;-60
2021/11/16 09:19:55;;;;;;;34.22;23.15;;;17.10;94.70;;;;;;5041214;28;20115;-59
2021/11/16 09:22:21;;;;;;;32.05;22.90;;;17.20;94.60;;;;;;5034872;28;20029;-60
2021/11/16 09:24:51;;;;;;;31.58;22.60;;;17.00;94.80;;;;;;5045968;28;20041;-59
2021/11/16 09:27:43;;;;;;;36.03;23.67;;;17.00;94.80;;;;;;5053888;28;20032;-59
2021/11/16 09:30:10;;;;;;;34.28;22.60;;;16.90;93.70;;;;;;5047632;28;20057;-58
2021/11/16 09:32:36;;;;;;;32.70;21.83;;;16.80;94.20;;;;;;5049903;28;20112;-58
2021/11/16 09:35:03;;;;;;;30.05;21.70;;;16.90;94.40;;;;;;5034628;28;20100;-59
2021/11/16 09:37:30;;;;;;;32.15;23.88;;;17.00;94.10;;;;;;5034556;28;20113;-60
2021/11/16 09:39:59;;;;;;;26.08;19.85;;;17.00;94.40;;;;;;5046352;28;20029;-60
2021/11/16 09:42:46;;;;;;;30.17;21.92;;;17.00;93.20;;;;;;5053010;28;20116;-59
2021/11/16 09:45:19;;;;;;;33.42;22.90;;;17.10;92.70;;;;;;5039241;28;20380;-59
2021/11/16 09:47:45;;;;;;;32.97;24.15;;;17.10;93.70;;;;;;5039348;28;20025;-59
2021/11/16 09:50:11;;;;;;;32.97;22.55;;;17.20;93.90;;;;;;5051735;28;20039;-59
2021/11/16 09:52:55;;;;;;;33.15;23.65;;;17.20;93.80;;;;;;5054140;28;20025;-58
2021/11/16 09:55:22;;;;;;;35.83;24.05;;;17.20;93.40;;;;;;5053247;28;20509;-59
2021/11/16 09:57:52;;;;;;;36.50;25.90;;;17.20;91.90;;;;;;5035592;28;20506;-57
2021/11/16 10:00:23;;;;;;;34.47;24.75;;;17.30;93.40;;;;;;5038389;28;20567;-57
2021/11/16 10:03:15;;;;;;;33.05;24.45;;;17.30;93.20;;;;;;5052777;28;20045;-59
2021/11/16 10:05:47;;;;;;;35.45;25.15;;;17.30;91.50;;;;;;5052929;28;20059;-58
2021/11/16 10:08:14;;;;;;;35.05;24.17;;;17.40;93.00;;;;;;5033946;28;20402;-59
2021/11/16 10:10:44;;;;;;;33.55;22.77;;;17.40;92.50;;;;;;5033424;28;20053;-59
2021/11/16 10:13:12;;;;;;;35.17;23.45;;;17.50;92.40;;;;;;5052390;28;20029;-58
2021/11/16 10:15:44;;;;;;;31.77;22.02;;;17.50;92.10;;;;;;5053527;28;20020;-59
2021/11/16 10:18:14;;;;;;;33.97;23.80;;;17.50;89.10;;;;;;5048081;28;20506;-59
2021/11/16 10:20:43;;;;;;;33.03;21.08;;;17.50;92.30;;;;;;5032912;28;20025;-59
2021/11/16 10:23:11;;;;;;;29.38;21.05;;;17.20;92.30;;;;;;5039802;28;20780;-60
2021/11/16 10:25:47;;;;;;;29.73;21.70;;;17.40;90.60;;;;;;5053384;28;20040;-60
2021/11/16 10:28:15;;;;;;;30.63;21.60;;;17.30;91.90;;;;;;5033414;28;20037;-59
2021/11/16 10:30:44;;;;;;;24.38;18.98;;;17.40;91.00;;;;;;5033200;28;20049;-60
2021/11/16 10:33:14;;;;;;;31.27;20.88;;;17.30;90.80;;;;;;5052829;28;20029;-59
2021/11/16 10:35:43;;;;;;;29.48;21.13;;;17.20;92.20;;;;;;5053429;28;20086;-59
2021/11/16 10:38:13;;;;;;;28.90;20.42;;;17.60;92.90;;;;;;5033632;28;20156;-59
2021/11/16 10:40:39;;;;;;;33.45;22.08;;;17.50;90.00;;;;;;5048674;28;20463;-59
2021/11/16 10:43:06;;;;;;;27.30;20.65;;;17.40;92.40;;;;;;5051259;28;20029;-58
2021/11/16 10:45:35;;;;;;;33.03;21.90;;;17.00;92.60;;;;;;5052911;28;20498;-59
2021/11/16 10:48:08;;;;;;;30.83;21.98;;;17.40;93.00;;;;;;5034774;28;20463;-59
2021/11/16 10:50:35;;;;;;;30.60;21.20;;;17.60;92.50;;;;;;5045993;28;20025;-59
2021/11/16 10:53:09;;;;;;;31.70;20.85;;;17.70;92.40;;;;;;5035082;28;20022;-59
2021/11/16 10:55:51;;;;;;;31.30;21.85;;;17.70;91.20;;;;;;5032894;28;20113;-59
2021/11/16 10:58:31;;;;;;;27.55;20.20;;;17.70;91.90;;;;;;5050149;28;20032;-58
2021/11/16 11:01:05;;;;;;;32.38;22.77;;;18.00;93.00;;;;;;5052294;28;20029;-59
2021/11/16 11:03:45;;;;;;;28.73;20.33;;;18.00;93.00;;;;;;5032937;28;20037;-57
2021/11/16 11:06:20;;;;;;;30.00;20.67;;;18.00;93.30;;;;;;5032864;28;20030;-59
2021/11/16 11:08:53;;;;;;;31.85;21.17;;;18.10;90.60;;;;;;5032992;28;20380;-59
2021/11/16 11:11:21;;;;;;;28.35;20.92;;;18.10;90.50;;;;;;5032863;28;20670;-59
2021/11/16 11:13:52;;;;;;;28.65;20.33;;;18.10;90.30;;;;;;5032831;28;20101;-59
2021/11/16 11:16:19;;;;;;;26.85;19.42;;;18.10;90.10;;;;;;5037747;28;20033;-58
2021/11/16 11:18:48;;;;;;;28.48;21.73;;;18.00;87.90;;;;;;5032877;28;20029;-59
2021/11/16 11:21:37;;;;;;;32.85;24.35;;;18.00;89.40;;;;;;5033362;28;20056;-60
2021/11/16 11:24:19;;;;;;;35.10;25.15;;;17.90;84.90;;;;;;5037243;28;20526;-59
2021/11/16 11:26:56;;;;;;;31.63;20.95;;;18.00;87.90;;;;;;5032827;28;20025;-59
2021/11/16 11:29:56;;;;;;;31.38;22.42;;;18.00;89.50;;;;;;5046423;28;20468;-59
2021/11/16 11:32:25;;;;;;;30.15;21.95;;;18.10;86.90;;;;;;5043850;28;20020;-58
2021/11/16 11:35:00;;;;;;;31.48;21.42;;;18.10;88.90;;;;;;5055469;28;20539;-59
2021/11/16 11:37:32;;;;;;;31.52;22.50;;;18.00;87.20;;;;;;5055618;28;20418;-59
2021/11/16 11:40:08;;;;;;;30.33;22.00;;;17.90;84.80;;;;;;5051372;28;20036;-58
2021/11/16 11:42:46;;;;;;;27.77;20.33;;;18.00;87.10;;;;;;5044576;28;20029;-59
2021/11/16 11:45:24;;;;;;;30.85;21.10;;;17.90;86.90;;;;;;5036461;28;20037;-59
2021/11/16 11:47:52;;;;;;;30.63;21.70;;;18.10;87.50;;;;;;5048826;28;20435;-59
2021/11/16 11:50:19;;;;;;;28.77;20.38;;;18.20;86.80;;;;;;5055144;28;20033;-58
2021/11/16 11:52:46;;;;;;;32.75;21.10;;;18.20;85.90;;;;;;5052052;28;20021;-60
2021/11/16 11:55:11;;;;;;;30.30;21.52;;;18.20;86.90;;;;;;5053144;28;20423;-59
2021/11/16 11:57:39;;;;;;;30.30;21.88;;;18.30;86.80;;;;;;5054601;28;20025;-57
2021/11/16 12:00:05;;;;;;;29.17;20.60;;;18.30;84.50;;;;;;5051660;28;20103;-60
2021/11/16 12:02:32;;;;;;;33.83;23.20;;;18.40;87.40;;;;;;5053723;28;20059;-59
2021/11/16 12:04:58;;;;;;;32.42;22.63;;;18.60;88.30;;;;;;5054732;28;20040;-60
2021/11/16 12:07:27;;;;;;;35.80;24.52;;;18.50;88.70;;;;;;5054942;28;20039;-60
2021/11/16 12:09:54;;;;;;;35.97;24.75;;;18.60;90.00;;;;;;5051514;28;20025;-59
2021/11/16 12:12:21;;;;;;;34.50;21.52;;;;;;;;;;5045050;28;20025;-61
2021/11/16 12:15:07;;;;;;;33.17;22.15;;;;;;;;;;5054588;28;20445;-60
2021/11/16 12:17:36;;;;;;;36.22;23.60;;;;;;;;;;5053659;28;20061;-60
2021/11/16 12:20:02;;;;;;;30.50;22.08;;;18.40;89.40;;;;;;5042155;28;20029;-60
2021/11/16 12:22:32;;;;;;;32.33;22.00;;;18.20;84.70;;;;;;5051416;28;20115;-60
2021/11/16 12:25:19;;;;;;;35.17;24.20;;;17.90;86.60;;;;;;5049987;28;20494;-60
2021/11/16 12:27:46;;;;;;;31.65;21.33;;;17.90;84.40;;;;;;5042946;28;20021;-60
2021/11/16 12:30:12;;;;;;;28.55;21.58;;;18.00;87.10;;;;;;5058491;28;20565;-60
2021/11/16 12:32:49;;;;;;;33.72;22.55;;;18.20;85.40;;;;;;5049676;28;20037;-60
2021/11/16 12:35:17;;;;;;;32.72;23.17;;;18.20;84.00;;;;;;5050451;28;20024;-60
2021/11/16 12:37:47;;;;;;;33.13;23.00;;;17.90;86.40;;;;;;5047983;28;20032;-60
2021/11/16 12:40:19;;;;;;;38.05;24.63;;;18.10;85.30;;;;;;5039962;28;20079;-60
2021/11/16 12:43:03;;;;;;;32.90;23.63;;;;;;;;;;5036077;28;20116;-60
2021/11/16 12:45:50;;;;;;;32.03;22.98;;;;;;;;;;5035548;28;20430;-60
2021/11/16 12:48:18;;;;;;;31.13;22.80;;;17.70;89.90;;;;;;5049922;28;20037;-58
2021/11/16 12:51:07;;;;;;;33.47;24.02;;;18.00;89.00;;;;;;5055586;28;20033;-60
2021/11/16 12:53:54;;;;;;;34.22;23.25;;;17.90;86.00;;;;;;5056418;28;20467;-60
2021/11/16 12:56:21;;;;;;;29.35;22.25;;;17.70;87.10;;;;;;5054385;28;20477;-60